sensor_id;sensor_type;location;lat;lon;timestamp;P1;durP1;ratioP1;P2;durP2;ratioP2
70406;SDS011;57821;52.202;0.154;2023-01-01T00:01:47;8.38;;;1.35;;
70406;SDS011;57821;52.202;0.154;2023-01-01T00:04:14;11.70;;;1.67;;
70406;SDS011;57821;52.202;0.154;2023-01-01T00:06:41;6.15;;;1.48;;
70406;SDS011;57821;52.202;0.154;2023-01-01T00:09:08;9.15;;;2.22;;
70406;SDS011;57821;52.202;0.154;2023-01-01T00:11:34;6.53;;;2.72;;
70406;SDS011;57821;52.202;0.154;2023-01-01T00:14:01;9.07;;;3.40;;
70406;SDS011;57821;52.202;0.154;2023-01-01T00:16:35;10.82;;;3.40;;
70406;SDS011;57821;52.202;0.154;2023-01-01T00:19:02;11.35;;;3.25;;
70406;SDS011;57821;52.202;0.154;2023-01-01T00:21:28;10.48;;;2.65;;
70406;SDS011;57821;52.202;0.154;2023-01-01T00:23:55;8.75;;;2.20;;
70406;SDS011;57821;52.202;0.154;2023-01-01T00:26:21;7.85;;;1.27;;
70406;SDS011;57821;52.202;0.154;2023-01-01T00:28:48;6.25;;;1.55;;
70406;SDS011;57821;52.202;0.154;2023-01-01T00:31:16;11.40;;;2.10;;
70406;SDS011;57821;52.202;0.154;2023-01-01T00:33:44;4.55;;;1.13;;
70406;SDS011;57821;52.202;0.154;2023-01-01T00:36:12;6.03;;;1.20;;
70406;SDS011;57821;52.202;0.154;2023-01-01T00:38:40;8.18;;;1.23;;
70406;SDS011;57821;52.202;0.154;2023-01-01T00:41:08;6.10;;;1.38;;
70406;SDS011;57821;52.202;0.154;2023-01-01T00:43:35;3.85;;;0.95;;
70406;SDS011;57821;52.202;0.154;2023-01-01T00:46:03;7.32;;;1.77;;
70406;SDS011;57821;52.202;0.154;2023-01-01T00:48:31;6.53;;;1.50;;
70406;SDS011;57821;52.202;0.154;2023-01-01T00:50:58;4.68;;;1.23;;
70406;SDS011;57821;52.202;0.154;2023-01-01T00:53:24;5.50;;;1.42;;
70406;SDS011;57821;52.202;0.154;2023-01-01T00:55:51;6.75;;;1.73;;
70406;SDS011;57821;52.202;0.154;2023-01-01T00:58:18;3.65;;;1.00;;
70406;SDS011;57821;52.202;0.154;2023-01-01T01:00:45;5.95;;;0.80;;
70406;SDS011;57821;52.202;0.154;2023-01-01T01:03:12;7.35;;;1.30;;
70406;SDS011;57821;52.202;0.154;2023-01-01T01:05:39;4.20;;;0.90;;
70406;SDS011;57821;52.202;0.154;2023-01-01T01:08:06;3.35;;;0.85;;
70406;SDS011;57821;52.202;0.154;2023-01-01T01:10:32;6.35;;;1.13;;
70406;SDS011;57821;52.202;0.154;2023-01-01T01:12:59;5.18;;;1.23;;
70406;SDS011;57821;52.202;0.154;2023-01-01T01:15:25;3.95;;;1.10;;
70406;SDS011;57821;52.202;0.154;2023-01-01T01:17:52;3.65;;;1.05;;
70406;SDS011;57821;52.202;0.154;2023-01-01T01:20:18;6.65;;;1.52;;
70406;SDS011;57821;52.202;0.154;2023-01-01T01:22:45;6.07;;;1.63;;
70406;SDS011;57821;52.202;0.154;2023-01-01T01:25:11;4.95;;;1.40;;
70406;SDS011;57821;52.202;0.154;2023-01-01T01:27:38;4.93;;;1.38;;
70406;SDS011;57821;52.202;0.154;2023-01-01T01:30:04;7.25;;;1.60;;
70406;SDS011;57821;52.202;0.154;2023-01-01T01:32:31;5.63;;;1.65;;
70406;SDS011;57821;52.202;0.154;2023-01-01T01:34:58;6.10;;;1.65;;
70406;SDS011;57821;52.202;0.154;2023-01-01T01:37:24;5.90;;;1.58;;
70406;SDS011;57821;52.202;0.154;2023-01-01T01:39:51;5.22;;;1.40;;
70406;SDS011;57821;52.202;0.154;2023-01-01T01:42:19;6.32;;;1.10;;
70406;SDS011;57821;52.202;0.154;2023-01-01T01:47:32;5.70;;;1.42;;
70406;SDS011;57821;52.202;0.154;2023-01-01T01:50:13;11.52;;;1.70;;
70406;SDS011;57821;52.202;0.154;2023-01-01T01:52:45;9.02;;;1.60;;
70406;SDS011;57821;52.202;0.154;2023-01-01T01:55:34;9.45;;;1.55;;
70406;SDS011;57821;52.202;0.154;2023-01-01T01:58:03;11.43;;;2.60;;
70406;SDS011;57821;52.202;0.154;2023-01-01T02:00:32;6.38;;;1.50;;
70406;SDS011;57821;52.202;0.154;2023-01-01T02:05:31;13.18;;;1.58;;
70406;SDS011;57821;52.202;0.154;2023-01-01T02:07:59;7.00;;;1.65;;
70406;SDS011;57821;52.202;0.154;2023-01-01T02:10:28;11.23;;;2.22;;
70406;SDS011;57821;52.202;0.154;2023-01-01T02:12:55;9.98;;;1.48;;
70406;SDS011;57821;52.202;0.154;2023-01-01T02:15:22;8.57;;;1.40;;
70406;SDS011;57821;52.202;0.154;2023-01-01T02:18:00;8.50;;;1.00;;
70406;SDS011;57821;52.202;0.154;2023-01-01T02:28:50;13.07;;;1.55;;
70406;SDS011;57821;52.202;0.154;2023-01-01T02:31:25;10.25;;;1.77;;
70406;SDS011;57821;52.202;0.154;2023-01-01T02:33:56;11.60;;;2.55;;
70406;SDS011;57821;52.202;0.154;2023-01-01T02:36:26;10.75;;;1.90;;
70406;SDS011;57821;52.202;0.154;2023-01-01T02:38:56;8.30;;;1.42;;
70406;SDS011;57821;52.202;0.154;2023-01-01T02:41:30;6.95;;;1.27;;
70406;SDS011;57821;52.202;0.154;2023-01-01T02:44:02;9.90;;;1.80;;
70406;SDS011;57821;52.202;0.154;2023-01-01T02:46:31;8.98;;;1.42;;
70406;SDS011;57821;52.202;0.154;2023-01-01T02:48:59;10.80;;;1.60;;
70406;SDS011;57821;52.202;0.154;2023-01-01T02:54:51;11.68;;;1.70;;
70406;SDS011;57821;52.202;0.154;2023-01-01T03:00:37;12.10;;;1.95;;
70406;SDS011;57821;52.202;0.154;2023-01-01T03:03:07;10.35;;;2.03;;
70406;SDS011;57821;52.202;0.154;2023-01-01T03:08:19;11.52;;;1.67;;
70406;SDS011;57821;52.202;0.154;2023-01-01T03:13:40;17.63;;;2.67;;
70406;SDS011;57821;52.202;0.154;2023-01-01T03:16:13;10.55;;;1.70;;
70406;SDS011;57821;52.202;0.154;2023-01-01T03:19:06;11.07;;;1.58;;
70406;SDS011;57821;52.202;0.154;2023-01-01T03:21:39;11.73;;;1.90;;
70406;SDS011;57821;52.202;0.154;2023-01-01T03:24:10;12.50;;;3.00;;
70406;SDS011;57821;52.202;0.154;2023-01-01T03:26:42;15.10;;;1.88;;
70406;SDS011;57821;52.202;0.154;2023-01-01T03:29:13;16.70;;;2.45;;
70406;SDS011;57821;52.202;0.154;2023-01-01T03:31:41;19.08;;;2.95;;
70406;SDS011;57821;52.202;0.154;2023-01-01T03:34:11;12.43;;;1.60;;
70406;SDS011;57821;52.202;0.154;2023-01-01T03:36:48;10.98;;;1.55;;
70406;SDS011;57821;52.202;0.154;2023-01-01T03:39:24;12.35;;;1.85;;
70406;SDS011;57821;52.202;0.154;2023-01-01T03:41:57;20.48;;;4.25;;
70406;SDS011;57821;52.202;0.154;2023-01-01T03:44:37;14.63;;;2.30;;
70406;SDS011;57821;52.202;0.154;2023-01-01T03:47:10;14.07;;;3.35;;
70406;SDS011;57821;52.202;0.154;2023-01-01T03:49:37;9.43;;;1.55;;
70406;SDS011;57821;52.202;0.154;2023-01-01T03:52:22;16.33;;;2.08;;
70406;SDS011;57821;52.202;0.154;2023-01-01T03:55:17;13.15;;;2.38;;
70406;SDS011;57821;52.202;0.154;2023-01-01T03:57:54;11.90;;;2.03;;
70406;SDS011;57821;52.202;0.154;2023-01-01T04:00:36;15.25;;;2.55;;
70406;SDS011;57821;52.202;0.154;2023-01-01T04:05:48;13.57;;;2.38;;
70406;SDS011;57821;52.202;0.154;2023-01-01T04:08:15;17.63;;;2.83;;
70406;SDS011;57821;52.202;0.154;2023-01-01T04:10:45;12.43;;;2.03;;
70406;SDS011;57821;52.202;0.154;2023-01-01T04:13:16;18.02;;;3.13;;
70406;SDS011;57821;52.202;0.154;2023-01-01T04:15:42;12.15;;;2.05;;
70406;SDS011;57821;52.202;0.154;2023-01-01T04:18:09;17.13;;;2.35;;
70406;SDS011;57821;52.202;0.154;2023-01-01T04:20:35;19.98;;;2.42;;
70406;SDS011;57821;52.202;0.154;2023-01-01T04:23:02;17.50;;;2.58;;
70406;SDS011;57821;52.202;0.154;2023-01-01T04:25:29;15.95;;;2.35;;
70406;SDS011;57821;52.202;0.154;2023-01-01T04:27:56;19.70;;;4.40;;
70406;SDS011;57821;52.202;0.154;2023-01-01T04:30:23;22.90;;;3.35;;
70406;SDS011;57821;52.202;0.154;2023-01-01T04:32:49;19.77;;;2.85;;
70406;SDS011;57821;52.202;0.154;2023-01-01T04:35:16;15.15;;;2.42;;
70406;SDS011;57821;52.202;0.154;2023-01-01T04:37:43;18.88;;;3.28;;
70406;SDS011;57821;52.202;0.154;2023-01-01T04:40:10;22.20;;;2.40;;
70406;SDS011;57821;52.202;0.154;2023-01-01T04:42:38;18.30;;;2.60;;
70406;SDS011;57821;52.202;0.154;2023-01-01T04:45:05;15.57;;;2.97;;
70406;SDS011;57821;52.202;0.154;2023-01-01T04:47:32;18.75;;;2.65;;
70406;SDS011;57821;52.202;0.154;2023-01-01T04:49:58;21.27;;;2.42;;
70406;SDS011;57821;52.202;0.154;2023-01-01T04:52:25;18.42;;;2.63;;
70406;SDS011;57821;52.202;0.154;2023-01-01T04:54:51;16.40;;;2.83;;
70406;SDS011;57821;52.202;0.154;2023-01-01T04:57:18;30.88;;;4.78;;
70406;SDS011;57821;52.202;0.154;2023-01-01T04:59:44;18.35;;;2.80;;
70406;SDS011;57821;52.202;0.154;2023-01-01T05:02:11;20.38;;;3.17;;
70406;SDS011;57821;52.202;0.154;2023-01-01T05:04:37;20.67;;;3.10;;
70406;SDS011;57821;52.202;0.154;2023-01-01T05:07:04;20.48;;;3.20;;
70406;SDS011;57821;52.202;0.154;2023-01-01T05:09:30;25.33;;;3.17;;
70406;SDS011;57821;52.202;0.154;2023-01-01T05:11:57;18.92;;;3.08;;
70406;SDS011;57821;52.202;0.154;2023-01-01T05:14:25;25.23;;;3.47;;
70406;SDS011;57821;52.202;0.154;2023-01-01T05:16:51;24.00;;;3.72;;
70406;SDS011;57821;52.202;0.154;2023-01-01T05:19:18;24.63;;;3.40;;
70406;SDS011;57821;52.202;0.154;2023-01-01T05:21:44;17.23;;;2.80;;
70406;SDS011;57821;52.202;0.154;2023-01-01T05:24:11;19.83;;;3.00;;
70406;SDS011;57821;52.202;0.154;2023-01-01T05:26:39;23.33;;;3.10;;
70406;SDS011;57821;52.202;0.154;2023-01-01T05:29:07;21.98;;;2.97;;
70406;SDS011;57821;52.202;0.154;2023-01-01T05:31:42;18.20;;;3.53;;
70406;SDS011;57821;52.202;0.154;2023-01-01T05:34:08;22.38;;;2.58;;
70406;SDS011;57821;52.202;0.154;2023-01-01T05:36:35;22.45;;;3.30;;
70406;SDS011;57821;52.202;0.154;2023-01-01T05:39:03;22.48;;;2.90;;
70406;SDS011;57821;52.202;0.154;2023-01-01T05:41:30;18.63;;;2.83;;
70406;SDS011;57821;52.202;0.154;2023-01-01T05:43:57;19.38;;;2.97;;
70406;SDS011;57821;52.202;0.154;2023-01-01T05:46:23;22.65;;;3.10;;
70406;SDS011;57821;52.202;0.154;2023-01-01T05:48:51;20.88;;;2.67;;
70406;SDS011;57821;52.202;0.154;2023-01-01T05:51:19;19.13;;;3.42;;
70406;SDS011;57821;52.202;0.154;2023-01-01T05:53:48;23.23;;;2.90;;
70406;SDS011;57821;52.202;0.154;2023-01-01T05:56:16;27.55;;;3.70;;
70406;SDS011;57821;52.202;0.154;2023-01-01T05:58:43;27.75;;;4.18;;
70406;SDS011;57821;52.202;0.154;2023-01-01T06:03:38;22.85;;;3.20;;
70406;SDS011;57821;52.202;0.154;2023-01-01T06:06:06;22.30;;;3.25;;
70406;SDS011;57821;52.202;0.154;2023-01-01T06:08:35;28.10;;;4.32;;
70406;SDS011;57821;52.202;0.154;2023-01-01T06:11:03;19.67;;;4.40;;
70406;SDS011;57821;52.202;0.154;2023-01-01T06:13:31;26.02;;;5.22;;
70406;SDS011;57821;52.202;0.154;2023-01-01T06:15:59;27.73;;;3.35;;
70406;SDS011;57821;52.202;0.154;2023-01-01T06:18:30;25.00;;;4.78;;
70406;SDS011;57821;52.202;0.154;2023-01-01T06:23:32;22.55;;;2.97;;
70406;SDS011;57821;52.202;0.154;2023-01-01T06:26:11;19.58;;;4.05;;
70406;SDS011;57821;52.202;0.154;2023-01-01T06:28:48;22.75;;;2.75;;
70406;SDS011;57821;52.202;0.154;2023-01-01T06:31:15;22.92;;;3.85;;
70406;SDS011;57821;52.202;0.154;2023-01-01T06:33:44;19.60;;;2.97;;
70406;SDS011;57821;52.202;0.154;2023-01-01T06:36:12;23.25;;;3.33;;
70406;SDS011;57821;52.202;0.154;2023-01-01T06:38:40;17.65;;;2.85;;
70406;SDS011;57821;52.202;0.154;2023-01-01T06:41:14;17.70;;;2.17;;
70406;SDS011;57821;52.202;0.154;2023-01-01T06:43:42;18.85;;;4.00;;
70406;SDS011;57821;52.202;0.154;2023-01-01T06:46:26;14.60;;;2.90;;
70406;SDS011;57821;52.202;0.154;2023-01-01T06:48:58;22.23;;;3.33;;
70406;SDS011;57821;52.202;0.154;2023-01-01T06:51:28;16.85;;;3.20;;
70406;SDS011;57821;52.202;0.154;2023-01-01T06:53:57;17.95;;;2.47;;
70406;SDS011;57821;52.202;0.154;2023-01-01T06:56:24;16.27;;;1.85;;
70406;SDS011;57821;52.202;0.154;2023-01-01T06:58:51;14.90;;;2.05;;
70406;SDS011;57821;52.202;0.154;2023-01-01T07:01:18;12.02;;;2.80;;
70406;SDS011;57821;52.202;0.154;2023-01-01T07:03:50;9.30;;;1.35;;
70406;SDS011;57821;52.202;0.154;2023-01-01T07:06:21;11.77;;;1.30;;
70406;SDS011;57821;52.202;0.154;2023-01-01T07:08:49;16.05;;;1.63;;
70406;SDS011;57821;52.202;0.154;2023-01-01T07:11:16;11.38;;;1.60;;
70406;SDS011;57821;52.202;0.154;2023-01-01T07:13:43;13.43;;;1.52;;
70406;SDS011;57821;52.202;0.154;2023-01-01T07:16:10;13.88;;;1.48;;
70406;SDS011;57821;52.202;0.154;2023-01-01T07:18:39;14.20;;;1.70;;
70406;SDS011;57821;52.202;0.154;2023-01-01T07:21:06;11.15;;;2.40;;
70406;SDS011;57821;52.202;0.154;2023-01-01T07:23:54;13.07;;;2.03;;
70406;SDS011;57821;52.202;0.154;2023-01-01T07:26:24;8.82;;;1.70;;
70406;SDS011;57821;52.202;0.154;2023-01-01T07:28:52;21.27;;;1.80;;
70406;SDS011;57821;52.202;0.154;2023-01-01T07:31:19;11.60;;;2.00;;
70406;SDS011;57821;52.202;0.154;2023-01-01T07:33:45;11.98;;;2.08;;
70406;SDS011;57821;52.202;0.154;2023-01-01T07:36:12;13.55;;;1.92;;
70406;SDS011;57821;52.202;0.154;2023-01-01T07:38:38;17.38;;;2.08;;
70406;SDS011;57821;52.202;0.154;2023-01-01T07:41:05;15.43;;;1.90;;
70406;SDS011;57821;52.202;0.154;2023-01-01T07:43:32;12.43;;;2.13;;
70406;SDS011;57821;52.202;0.154;2023-01-01T07:45:58;17.90;;;2.55;;
70406;SDS011;57821;52.202;0.154;2023-01-01T07:48:25;23.08;;;2.88;;
70406;SDS011;57821;52.202;0.154;2023-01-01T07:50:52;16.17;;;2.60;;
70406;SDS011;57821;52.202;0.154;2023-01-01T07:53:18;21.55;;;2.63;;
70406;SDS011;57821;52.202;0.154;2023-01-01T07:55:45;21.65;;;4.55;;
70406;SDS011;57821;52.202;0.154;2023-01-01T07:58:11;26.77;;;4.55;;
70406;SDS011;57821;52.202;0.154;2023-01-01T08:00:38;19.40;;;2.90;;
70406;SDS011;57821;52.202;0.154;2023-01-01T08:03:05;23.65;;;3.15;;
70406;SDS011;57821;52.202;0.154;2023-01-01T08:05:31;16.10;;;2.80;;
70406;SDS011;57821;52.202;0.154;2023-01-01T08:07:58;25.98;;;3.45;;
70406;SDS011;57821;52.202;0.154;2023-01-01T08:10:24;21.30;;;3.13;;
70406;SDS011;57821;52.202;0.154;2023-01-01T08:12:51;22.92;;;2.83;;
70406;SDS011;57821;52.202;0.154;2023-01-01T08:15:23;26.83;;;3.38;;
70406;SDS011;57821;52.202;0.154;2023-01-01T08:17:54;16.85;;;3.75;;
70406;SDS011;57821;52.202;0.154;2023-01-01T08:20:24;25.42;;;3.72;;
70406;SDS011;57821;52.202;0.154;2023-01-01T08:22:52;31.60;;;4.50;;
70406;SDS011;57821;52.202;0.154;2023-01-01T08:25:19;20.60;;;3.38;;
70406;SDS011;57821;52.202;0.154;2023-01-01T08:27:46;38.28;;;4.55;;
70406;SDS011;57821;52.202;0.154;2023-01-01T08:30:13;27.25;;;3.53;;
70406;SDS011;57821;52.202;0.154;2023-01-01T08:32:40;22.65;;;3.40;;
70406;SDS011;57821;52.202;0.154;2023-01-01T08:35:07;27.20;;;4.30;;
70406;SDS011;57821;52.202;0.154;2023-01-01T08:37:34;26.45;;;4.60;;
70406;SDS011;57821;52.202;0.154;2023-01-01T08:40:01;25.00;;;3.60;;
70406;SDS011;57821;52.202;0.154;2023-01-01T08:42:27;26.67;;;3.17;;
70406;SDS011;57821;52.202;0.154;2023-01-01T08:44:54;21.92;;;3.17;;
70406;SDS011;57821;52.202;0.154;2023-01-01T08:47:21;23.20;;;4.22;;
70406;SDS011;57821;52.202;0.154;2023-01-01T08:49:50;25.67;;;3.88;;
70406;SDS011;57821;52.202;0.154;2023-01-01T08:52:17;23.48;;;3.65;;
70406;SDS011;57821;52.202;0.154;2023-01-01T08:54:44;32.92;;;4.60;;
70406;SDS011;57821;52.202;0.154;2023-01-01T08:57:11;35.17;;;4.30;;
70406;SDS011;57821;52.202;0.154;2023-01-01T08:59:37;25.15;;;4.00;;
70406;SDS011;57821;52.202;0.154;2023-01-01T09:02:04;29.58;;;3.10;;
70406;SDS011;57821;52.202;0.154;2023-01-01T09:04:32;23.40;;;3.38;;
70406;SDS011;57821;52.202;0.154;2023-01-01T09:06:58;23.80;;;3.92;;
70406;SDS011;57821;52.202;0.154;2023-01-01T09:09:25;27.25;;;4.43;;
70406;SDS011;57821;52.202;0.154;2023-01-01T09:11:57;26.50;;;3.10;;
70406;SDS011;57821;52.202;0.154;2023-01-01T09:14:24;24.88;;;3.17;;
70406;SDS011;57821;52.202;0.154;2023-01-01T09:16:51;18.33;;;3.13;;
70406;SDS011;57821;52.202;0.154;2023-01-01T09:19:17;23.65;;;3.65;;
70406;SDS011;57821;52.202;0.154;2023-01-01T09:21:44;18.70;;;2.30;;
70406;SDS011;57821;52.202;0.154;2023-01-01T09:24:10;16.27;;;2.03;;
70406;SDS011;57821;52.202;0.154;2023-01-01T09:26:37;11.30;;;1.65;;
70406;SDS011;57821;52.202;0.154;2023-01-01T09:29:03;12.63;;;2.92;;
70406;SDS011;57821;52.202;0.154;2023-01-01T09:31:30;14.98;;;1.77;;
70406;SDS011;57821;52.202;0.154;2023-01-01T09:33:56;13.93;;;1.73;;
70406;SDS011;57821;52.202;0.154;2023-01-01T09:38:49;16.63;;;2.17;;
70406;SDS011;57821;52.202;0.154;2023-01-01T09:44:05;10.80;;;1.73;;
70406;SDS011;57821;52.202;0.154;2023-01-01T09:46:43;9.10;;;1.65;;
70406;SDS011;57821;52.202;0.154;2023-01-01T09:49:11;8.32;;;1.48;;
70406;SDS011;57821;52.202;0.154;2023-01-01T09:51:43;7.82;;;1.98;;
70406;SDS011;57821;52.202;0.154;2023-01-01T09:55:08;9.55;;;1.58;;
70406;SDS011;57821;52.202;0.154;2023-01-01T09:57:16;11.35;;;1.55;;
70406;SDS011;57821;52.202;0.154;2023-01-01T09:59:45;11.05;;;1.27;;
70406;SDS011;57821;52.202;0.154;2023-01-01T10:02:21;10.23;;;1.77;;
70406;SDS011;57821;52.202;0.154;2023-01-01T10:07:58;16.38;;;2.13;;
70406;SDS011;57821;52.202;0.154;2023-01-01T10:10:40;14.25;;;2.03;;
70406;SDS011;57821;52.202;0.154;2023-01-01T10:13:21;14.30;;;1.90;;
70406;SDS011;57821;52.202;0.154;2023-01-01T10:18:38;20.27;;;4.15;;
70406;SDS011;57821;52.202;0.154;2023-01-01T10:21:09;18.40;;;2.28;;
70406;SDS011;57821;52.202;0.154;2023-01-01T10:23:42;18.20;;;4.13;;
70406;SDS011;57821;52.202;0.154;2023-01-01T10:26:15;17.52;;;2.42;;
70406;SDS011;57821;52.202;0.154;2023-01-01T10:31:27;14.68;;;2.30;;
70406;SDS011;57821;52.202;0.154;2023-01-01T10:33:57;10.75;;;1.92;;
70406;SDS011;57821;52.202;0.154;2023-01-01T10:36:24;13.15;;;2.40;;
70406;SDS011;57821;52.202;0.154;2023-01-01T10:38:51;13.50;;;3.33;;
70406;SDS011;57821;52.202;0.154;2023-01-01T10:41:18;22.88;;;3.00;;
70406;SDS011;57821;52.202;0.154;2023-01-01T10:43:45;16.40;;;2.95;;
70406;SDS011;57821;52.202;0.154;2023-01-01T10:46:17;19.65;;;3.40;;
70406;SDS011;57821;52.202;0.154;2023-01-01T10:49:03;15.70;;;2.30;;
70406;SDS011;57821;52.202;0.154;2023-01-01T10:51:32;16.77;;;2.90;;
70406;SDS011;57821;52.202;0.154;2023-01-01T10:54:02;14.43;;;2.22;;
70406;SDS011;57821;52.202;0.154;2023-01-01T10:56:37;18.15;;;4.13;;
70406;SDS011;57821;52.202;0.154;2023-01-01T11:02:18;21.00;;;3.10;;
70406;SDS011;57821;52.202;0.154;2023-01-01T11:04:48;13.38;;;2.33;;
70406;SDS011;57821;52.202;0.154;2023-01-01T11:09:51;16.92;;;2.42;;
70406;SDS011;57821;52.202;0.154;2023-01-01T11:12:32;22.08;;;3.85;;
70406;SDS011;57821;52.202;0.154;2023-01-01T11:15:39;13.57;;;2.30;;
70406;SDS011;57821;52.202;0.154;2023-01-01T11:18:14;19.20;;;3.25;;
70406;SDS011;57821;52.202;0.154;2023-01-01T11:20:50;14.20;;;2.13;;
70406;SDS011;57821;52.202;0.154;2023-01-01T11:28:31;18.90;;;2.88;;
70406;SDS011;57821;52.202;0.154;2023-01-01T11:31:08;17.83;;;2.55;;
70406;SDS011;57821;52.202;0.154;2023-01-01T11:33:57;35.22;;;4.70;;
70406;SDS011;57821;52.202;0.154;2023-01-01T11:36:25;19.35;;;3.15;;
70406;SDS011;57821;52.202;0.154;2023-01-01T11:41:45;17.08;;;3.28;;
70406;SDS011;57821;52.202;0.154;2023-01-01T11:44:21;18.88;;;3.33;;
70406;SDS011;57821;52.202;0.154;2023-01-01T11:47:01;19.67;;;3.55;;
70406;SDS011;57821;52.202;0.154;2023-01-01T11:49:29;23.23;;;3.67;;
70406;SDS011;57821;52.202;0.154;2023-01-01T11:51:57;22.85;;;3.33;;
70406;SDS011;57821;52.202;0.154;2023-01-01T11:56:54;21.27;;;3.53;;
70406;SDS011;57821;52.202;0.154;2023-01-01T11:59:26;25.50;;;4.43;;
70406;SDS011;57821;52.202;0.154;2023-01-01T12:02:05;27.70;;;3.35;;
70406;SDS011;57821;52.202;0.154;2023-01-01T12:04:43;25.42;;;4.47;;
70406;SDS011;57821;52.202;0.154;2023-01-01T12:07:20;29.67;;;4.90;;
70406;SDS011;57821;52.202;0.154;2023-01-01T12:10:00;30.50;;;4.53;;
70406;SDS011;57821;52.202;0.154;2023-01-01T12:12:36;29.65;;;4.35;;
70406;SDS011;57821;52.202;0.154;2023-01-01T12:15:16;23.42;;;3.25;;
70406;SDS011;57821;52.202;0.154;2023-01-01T12:20:55;27.23;;;4.03;;
70406;SDS011;57821;52.202;0.154;2023-01-01T12:23:30;30.98;;;4.55;;
70406;SDS011;57821;52.202;0.154;2023-01-01T12:26:18;29.45;;;4.28;;
70406;SDS011;57821;52.202;0.154;2023-01-01T12:34:19;25.58;;;3.83;;
70406;SDS011;57821;52.202;0.154;2023-01-01T12:45:59;33.80;;;4.47;;
70406;SDS011;57821;52.202;0.154;2023-01-01T12:57:28;30.95;;;4.32;;
70406;SDS011;57821;52.202;0.154;2023-01-01T12:59:59;31.52;;;4.40;;
70406;SDS011;57821;52.202;0.154;2023-01-01T13:02:28;28.10;;;4.10;;
70406;SDS011;57821;52.202;0.154;2023-01-01T13:05:34;29.73;;;5.53;;
70406;SDS011;57821;52.202;0.154;2023-01-01T13:07:59;24.95;;;3.72;;
70406;SDS011;57821;52.202;0.154;2023-01-01T13:13:00;25.58;;;5.93;;
70406;SDS011;57821;52.202;0.154;2023-01-01T13:18:05;23.02;;;4.13;;
70406;SDS011;57821;52.202;0.154;2023-01-01T13:20:39;40.38;;;5.20;;
70406;SDS011;57821;52.202;0.154;2023-01-01T13:45:13;22.70;;;4.05;;
70406;SDS011;57821;52.202;0.154;2023-01-01T13:53:14;30.45;;;4.50;;
70406;SDS011;57821;52.202;0.154;2023-01-01T13:55:56;26.00;;;4.18;;
70406;SDS011;57821;52.202;0.154;2023-01-01T14:01:22;31.02;;;5.03;;
70406;SDS011;57821;52.202;0.154;2023-01-01T14:03:59;22.38;;;3.58;;
70406;SDS011;57821;52.202;0.154;2023-01-01T14:06:37;22.20;;;3.70;;
70406;SDS011;57821;52.202;0.154;2023-01-01T14:09:15;26.52;;;4.63;;
70406;SDS011;57821;52.202;0.154;2023-01-01T14:11:45;35.15;;;4.93;;
70406;SDS011;57821;52.202;0.154;2023-01-01T14:14:24;30.15;;;4.68;;
70406;SDS011;57821;52.202;0.154;2023-01-01T14:16:56;35.33;;;4.35;;
70406;SDS011;57821;52.202;0.154;2023-01-01T14:19:25;30.42;;;3.72;;
70406;SDS011;57821;52.202;0.154;2023-01-01T14:21:53;32.90;;;5.45;;
70406;SDS011;57821;52.202;0.154;2023-01-01T14:24:21;24.83;;;3.58;;
70406;SDS011;57821;52.202;0.154;2023-01-01T14:26:49;25.40;;;4.85;;
70406;SDS011;57821;52.202;0.154;2023-01-01T14:29:26;24.48;;;4.13;;
70406;SDS011;57821;52.202;0.154;2023-01-01T14:31:59;24.52;;;3.72;;
70406;SDS011;57821;52.202;0.154;2023-01-01T14:34:36;29.77;;;4.13;;
70406;SDS011;57821;52.202;0.154;2023-01-01T14:37:03;27.52;;;4.18;;
70406;SDS011;57821;52.202;0.154;2023-01-01T14:39:44;27.35;;;3.88;;
70406;SDS011;57821;52.202;0.154;2023-01-01T14:42:14;30.38;;;4.82;;
70406;SDS011;57821;52.202;0.154;2023-01-01T14:44:45;28.63;;;4.88;;
70406;SDS011;57821;52.202;0.154;2023-01-01T14:47:23;26.17;;;4.53;;
70406;SDS011;57821;52.202;0.154;2023-01-01T14:49:52;27.02;;;4.45;;
70406;SDS011;57821;52.202;0.154;2023-01-01T14:52:26;22.63;;;3.67;;
70406;SDS011;57821;52.202;0.154;2023-01-01T14:54:54;24.30;;;3.72;;
70406;SDS011;57821;52.202;0.154;2023-01-01T14:57:24;33.90;;;4.07;;
70406;SDS011;57821;52.202;0.154;2023-01-01T14:59:54;21.80;;;4.47;;
70406;SDS011;57821;52.202;0.154;2023-01-01T15:02:24;29.80;;;6.05;;
70406;SDS011;57821;52.202;0.154;2023-01-01T15:04:53;23.95;;;3.42;;
70406;SDS011;57821;52.202;0.154;2023-01-01T15:07:21;36.35;;;5.47;;
70406;SDS011;57821;52.202;0.154;2023-01-01T15:09:53;35.83;;;6.03;;
70406;SDS011;57821;52.202;0.154;2023-01-01T15:12:22;33.72;;;5.28;;
70406;SDS011;57821;52.202;0.154;2023-01-01T15:14:49;29.38;;;3.97;;
70406;SDS011;57821;52.202;0.154;2023-01-01T15:17:18;25.60;;;3.65;;
70406;SDS011;57821;52.202;0.154;2023-01-01T15:20:00;32.67;;;7.20;;
70406;SDS011;57821;52.202;0.154;2023-01-01T15:22:30;25.02;;;4.95;;
70406;SDS011;57821;52.202;0.154;2023-01-01T15:25:02;27.65;;;5.28;;
70406;SDS011;57821;52.202;0.154;2023-01-01T15:27:29;28.98;;;4.03;;
70406;SDS011;57821;52.202;0.154;2023-01-01T15:29:58;38.50;;;5.03;;
70406;SDS011;57821;52.202;0.154;2023-01-01T15:32:26;24.10;;;3.80;;
70406;SDS011;57821;52.202;0.154;2023-01-01T15:34:57;30.58;;;4.80;;
70406;SDS011;57821;52.202;0.154;2023-01-01T15:37:28;27.58;;;4.28;;
70406;SDS011;57821;52.202;0.154;2023-01-01T15:42:44;21.52;;;4.10;;
70406;SDS011;57821;52.202;0.154;2023-01-01T15:47:48;24.70;;;4.22;;
70406;SDS011;57821;52.202;0.154;2023-01-01T15:52:42;26.33;;;4.18;;
70406;SDS011;57821;52.202;0.154;2023-01-01T15:55:20;23.20;;;3.55;;
70406;SDS011;57821;52.202;0.154;2023-01-01T15:57:47;27.33;;;3.60;;
70406;SDS011;57821;52.202;0.154;2023-01-01T16:02:50;24.50;;;4.75;;
70406;SDS011;57821;52.202;0.154;2023-01-01T16:05:20;31.85;;;4.63;;
70406;SDS011;57821;52.202;0.154;2023-01-01T16:08:08;29.73;;;5.60;;
70406;SDS011;57821;52.202;0.154;2023-01-01T16:10:35;28.48;;;3.90;;
70406;SDS011;57821;52.202;0.154;2023-01-01T16:13:02;35.95;;;5.15;;
70406;SDS011;57821;52.202;0.154;2023-01-01T16:15:28;29.77;;;4.53;;
70406;SDS011;57821;52.202;0.154;2023-01-01T16:17:55;23.48;;;4.35;;
70406;SDS011;57821;52.202;0.154;2023-01-01T16:20:22;27.90;;;4.50;;
70406;SDS011;57821;52.202;0.154;2023-01-01T16:22:48;26.58;;;5.68;;
70406;SDS011;57821;52.202;0.154;2023-01-01T16:25:16;24.73;;;4.45;;
70406;SDS011;57821;52.202;0.154;2023-01-01T16:27:45;26.00;;;7.00;;
70406;SDS011;57821;52.202;0.154;2023-01-01T16:30:12;28.35;;;4.53;;
70406;SDS011;57821;52.202;0.154;2023-01-01T16:32:39;29.30;;;4.97;;
70406;SDS011;57821;52.202;0.154;2023-01-01T16:35:09;32.45;;;5.30;;
70406;SDS011;57821;52.202;0.154;2023-01-01T16:37:38;35.63;;;4.25;;
70406;SDS011;57821;52.202;0.154;2023-01-01T16:40:04;28.42;;;5.68;;
70406;SDS011;57821;52.202;0.154;2023-01-01T16:42:32;25.35;;;5.55;;
70406;SDS011;57821;52.202;0.154;2023-01-01T16:44:58;29.77;;;4.47;;
70406;SDS011;57821;52.202;0.154;2023-01-01T16:47:25;33.13;;;4.78;;
70406;SDS011;57821;52.202;0.154;2023-01-01T16:49:51;33.63;;;5.63;;
70406;SDS011;57821;52.202;0.154;2023-01-01T16:52:18;29.83;;;5.30;;
70406;SDS011;57821;52.202;0.154;2023-01-01T16:54:44;30.23;;;4.65;;
70406;SDS011;57821;52.202;0.154;2023-01-01T16:57:11;25.88;;;4.80;;
70406;SDS011;57821;52.202;0.154;2023-01-01T16:59:38;29.50;;;5.80;;
70406;SDS011;57821;52.202;0.154;2023-01-01T17:02:07;30.00;;;6.72;;
70406;SDS011;57821;52.202;0.154;2023-01-01T17:04:36;25.83;;;4.53;;
70406;SDS011;57821;52.202;0.154;2023-01-01T17:07:02;29.55;;;4.78;;
70406;SDS011;57821;52.202;0.154;2023-01-01T17:09:29;28.45;;;4.72;;